Labs

Pokémon
United States
Tournaments

1186 tournaments, 1186 completed

Alabama
4/20 Saturday
12:00 Mobile (36618) 0 + 1 + 9 = 10
12:30 Chicago (60614) 0 + 0 + 9 = 9
1:00 Birmingham (35244) 2 + 6 + 23 = 31
2:00 Mobile (36618) 0 + 1 + 11 = 12
4/27 Saturday
10:00 Huntsville (35801) 2 + 8 + 20 = 30
10:00 Cullman (35055) 0 + 5 + 7 = 12
4/28 Sunday
12:00 Indianapolis (46227) 1 + 1 + 8 = 10
2:00 Leeds (35094) 2 + 3 + 3 = 8
Alaska
4/20 Saturday
12:00 Anchorage (99504) 2 + 4 + 14 = 20
4/21 Sunday
2:00 Fairbanks (99701) 3 + 1 + 11 = 15
4/27 Saturday
2:00 Anchorage (99515) 2 + 1 + 11 = 14
Alberta
4/20 Saturday
10:00 Lloydminster (T9V 2H3) 0 + 0 + 14 = 14
10:15 Calgary (T3C 0K2) 2 + 0 + 8 = 10
10:30 St. Albert (T8N 6A7) 3 + 3 + 12 = 18
11:00 Grande Prairie (T8V 0V3) 3 + 8 + 12 = 23
11:00 Edmonton (T5E4C3) 1 + 1 + 18 = 20
12:00 Red Deer (T4N 1T1) 3 + 0 + 16 = 19
1:30 St. Albert (T8N 6A7) 10 + 2 + 11 = 23
1:45 Calgary (T2E 8P1) 7 + 3 + 16 = 26
4:00 Grande Prairie (T8V-0T9) 2 + 2 + 18 = 22
5:30 St. Albert (T8N 6A7) 0 + 0 + 8 = 8
4/21 Sunday
10:00 Gatineau (J8T 6H5) 0 + 3 + 3 = 6
11:00 Grande Prairie (T8V 0V3) 2 + 0 + 11 = 13
11:30 Calgary (T2G 5A6) 3 + 1 + 4 = 8
12:00 Calgary (T2E 8P1) 5 + 1 + 12 = 18
1:00 Gatineau (J8T 6H5) 0 + 4 + 4 = 8
4:00 Grande Prairie (T8V-0T9) 0 + 1 + 14 = 15
4/22 Monday
11:00 St. Albert (T8N 6A7) 8 + 3 + 5 = 16
5:00 St. Albert (T8N 6A7) 0 + 0 + 8 = 8
4/23 Tuesday
5:45 Edmonton (T5N 1R7) 0 + 1 + 17 = 18
6:00 GRANDE PRAIRIE (T8V 0V3) 0 + 2 + 10 = 12
4/24 Wednesday
6:00 Sherwood Park (T8A4L7) 3 + 0 + 8 = 11
4/25 Thursday
5:30 Lloydminster (T9V 2H3) 1 + 0 + 10 = 11
6:00 St. Albert (T8N 6A7) 0 + 0 + 7 = 7
6:00 GRANDE PRAIRIE (T8V 0V3) 2 + 4 + 7 = 13
4/26 Friday
5:30 Calgary (T2E 8P1) 6 + 3 + 16 = 25
4/27 Saturday
10:00 WETASKIWIN (T9A3P5) 4 + 4 + 8 = 16
4/28 Sunday
11:00 Lloydminster (T9V 2H3) 0 + 0 + 8 = 8
12:30 Edmonton (T5J3K1) 0 + 0 + 15 = 15
Arizona
4/20 Saturday
12:01 Tempe (85281) 1 + 2 + 31 = 34
8:00 TEMPE (85282) 5 + 4 + 19 = 28
11:00 Tucson (85719) 0 + 5 + 20 = 25
11:00 Gilbert (85234) 5 + 2 + 13 = 20
11:00 Phoenix (85020) 2 + 0 + 13 = 15
11:00 Yuma (85364) 0 + 0 + 13 = 13
2:00 TEMPE (85282) 2 + 3 + 13 = 18
2:00 Yuma (85364) 0 + 0 + 11 = 11
2:15 Phoenix (85012) 1 + 1 + 9 = 11
3:00 Glendale (85302) 1 + 1 + 30 = 32
5:00 Phoenix (85012) 1 + 0 + 10 = 11
6:30 Phoenix (85012) 0 + 0 + 5 = 5
4/21 Sunday
11:00 Chandler (85226) 1 + 0 + 11 = 12
2:00 Chandler (85226) 3 + 1 + 12 = 16
4/22 Monday
6:00 Phoenix (85016) 1 + 0 + 24 = 25
4/23 Tuesday
5:45 Mesa (85204) 2 + 1 + 15 = 18
4/24 Wednesday
3:00 Yuma (85364) 0 + 0 + 10 = 10
5:15 TEMPE (85282) 9 + 9 + 19 = 37
4/26 Friday
6:00 Anthem/Phoenix (85086) 0 + 0 + 5 = 5
4/27 Saturday
11:00 Anthem/Phoenix (85086) 1 + 0 + 3 = 4
4:00 Phoenix (85016) 1 + 0 + 11 = 12
4/28 Sunday
2:00 Glendale (85307) 4 + 3 + 19 = 26
Arkansas
4/20 Saturday
9:00 Fayetteville (72704) 1 + 4 + 5 = 10
12:00 Van Buren (72956) 1 + 1 + 6 = 8
1:00 SHERWOOD (72120) 0 + 1 + 9 = 10
4:00 Rogers (72756) 4 + 1 + 14 = 19
4/21 Sunday
12:00 Russellville (72801) 1 + 1 + 19 = 21
4/27 Saturday
12:00 Cabot (72023) 1 + 0 + 27 = 28
4/28 Sunday
1:00 Rogers (72758) 7 + 4 + 11 = 22
2:00 Benton (72019) 1 + 0 + 10 = 11
British Columbia
4/20 Saturday
12:01 Prince George (V2M 0A1) 2 + 1 + 15 = 18
9:00 Fort St. John (V1J 1Y7) 8 + 1 + 7 = 16
10:00 Mission (V2V1E4) 4 + 1 + 5 = 10
11:00 Vancouver (V5R 5W2) 0 + 2 + 13 = 15
12:30 Prince George (V2N 6H9) 1 + 0 + 5 = 6
1:00 Langley (V4W1L3) 7 + 3 + 13 = 23
1:00 Abbotsford (V253X8) 1 + 1 + 2 = 4
4:00 Langley (V4W1L3) 1 + 1 + 14 = 16
4:00 Abbotsford (V253X8) 1 + 1 + 2 = 4
5:30 New Westminster (V3L2B8) 1 + 0 + 12 = 13
6:00 Vancouver (V5K 1Z9) 2 + 0 + 6 = 8
7:00 Langley (V4W1L3) 1 + 0 + 11 = 12
4/21 Sunday
11:00 Surrey (V3T2W1) 1 + 1 + 7 = 9
11:00 Vancouver (V5R 5W2) 2 + 0 + 8 = 10
12:00 Chilliwack (V2P2N2) 4 + 5 + 8 = 17
12:30 Prince George (V2M 0A1) 4 + 1 + 7 = 12
1:00 Vancouver (V5K 1Z9) 0 + 0 + 10 = 10
1:00 Abbotsford (V253X8) 0 + 1 + 4 = 5
4/22 Monday
1:00 Richmond (V6X 0J8) 4 + 4 + 25 = 33
4/26 Friday
4:30 Burnaby (V5H 2C3) 0 + 1 + 10 = 11
5:00 Nanaimo (V9T4K6) 3 + 13 + 31 = 47
5:30 Langley (V4W1L3) 5 + 1 + 14 = 20
8:00 Langley (V4W1L3) 0 + 0 + 11 = 11
4/27 Saturday
10:00 Mission (V2V1E4) 2 + 0 + 6 = 8
12:30 Prince George (V2N 6H9) 1 + 2 + 3 = 6
4/28 Sunday
9:00 Abbotsford (V253X8) 8 + 3 + 5 = 16
11:00 Surrey (V3T2W1) 1 + 3 + 17 = 21
11:00 Victoria (V8T 4E4) 5 + 4 + 9 = 18
11:30 Port Coquitlam (V3B 3N4) 3 + 6 + 15 = 24
12:30 Prince George (V2M 0A1) 2 + 0 + 8 = 10
1:00 Vancouver (V5K 1Z9) 5 + 1 + 3 = 9
California
4/20 Saturday
12:01 Winnetka (91306) 0 + 0 + 24 = 24
10:00 Bakersfield (93313) 5 + 7 + 20 = 32
10:00 Glendale (91203) 1 + 7 + 40 = 48
10:00 Anderson (96007) 4 + 0 + 18 = 22
10:00 Fresno (93710) 4 + 3 + 18 = 25
10:00 Concord (94520) 2 + 2 + 22 = 26
10:00 Hesperia (92345) 2 + 1 + 14 = 17
11:00 Winnetka (91306) 0 + 3 + 12 = 15
11:00 Winnetka (91306) 0 + 3 + 12 = 15
11:00 Winnetka (91306) 0 + 0 + 9 = 9
11:00 Berkeley (94704) 2 + 0 + 10 = 12
11:00 Modesto (95350) 0 + 2 + 12 = 14
11:00 Roseville (95661) 1 + 9 + 22 = 32
11:00 Los Angeles (90019) 2 + 1 + 24 = 27
11:15 Santa Clara (95050) 8 + 7 + 38 = 53
11:15 Santa Clara (95050) 5 + 7 + 25 = 37
11:30 Sacramento (95833) 1 + 0 + 9 = 10
11:30 Elk Grove (95624) 6 + 10 + 26 = 42
11:30 Hesperia (92345) 4 + 3 + 15 = 22
12:00 Huntington Beach (92648) 3 + 3 + 13 = 19
12:00 Fremont (94536) 0 + 1 + 11 = 12
12:00 Clovis (93612) 1 + 0 + 16 = 17
12:00 Upland (91786) 3 + 2 + 6 = 11
12:00 Signal Hill (90755) 1 + 0 + 9 = 10
1:00 Downey (90240) 4 + 2 + 20 = 26
1:00 Salinas (93906) 0 + 1 + 9 = 10
1:00 Torrance (90503) 0 + 2 + 8 = 10
2:00 San Francisco (94117) 4 + 1 + 8 = 13
2:00 Baldwin Park (91706) 0 + 1 + 13 = 14
2:00 Mission Viejo (92692) 2 + 6 + 8 = 16
3:00 Montebello (90640) 0 + 1 + 25 = 26
3:00 Upland (91786) 2 + 1 + 5 = 8
4:00 Riverside (92503) 5 + 3 + 37 = 45
4:00 Northridge (91324) 1 + 3 + 7 = 11
4:30 Elk Grove (95624) 3 + 9 + 16 = 28
4:30 San Francisco (94117) 4 + 1 + 14 = 19
11:00 Northridge (91324) 0 + 0 + 9 = 9
4/21 Sunday
9:00 Norwalk (90650) 0 + 0 + 10 = 10
11:00 pasadena (91326-4110) 2 + 5 + 6 = 13
11:15 Santa Clara (95050) 5 + 1 + 26 = 32
12:00 Redding (96003) 2 + 0 + 6 = 8
12:00 Northridge (91324) 3 + 1 + 7 = 11
12:00 Santa Monica (90401) 11 + 0 + 3 = 14
12:30 Eureka (95501) 3 + 0 + 15 = 18
1:00 Oceanside (92058) 3 + 1 + 24 = 28
1:00 Riverside (92503) 0 + 0 + 12 = 12
1:00 San Rafael (94901) 5 + 2 + 7 = 14
2:45 Santa Clara (95050) 4 + 1 + 20 = 25
4:00 pasadena (91326-4110) 2 + 4 + 13 = 19
4:30 Davis (95616) 0 + 1 + 19 = 20
5:00 Riverside (92503) 0 + 0 + 14 = 14
5:00 Downey (90240) 1 + 1 + 13 = 15
4/22 Monday
4:00 San Marcos (92078) 1 + 1 + 18 = 20
4/23 Tuesday
4:00 Winnetka (91306) 0 + 1 + 19 = 20
5:00 San Francisco (94117) 9 + 1 + 12 = 22
6:00 Sacramento (95833) 0 + 1 + 12 = 13
6:00 Riverside (92503) 2 + 1 + 22 = 25
4/24 Wednesday
5:00 Oceanside (92058) 0 + 1 + 11 = 12
5:30 Modesto (95350) 0 + 0 + 8 = 8
5:30 Northridge (91324) 0 + 2 + 7 = 9
6:00 Riverside (92503) 0 + 2 + 20 = 22
4/25 Thursday
6:30 Davis (95616) 2 + 1 + 11 = 14
4/26 Friday
4:00 Winnetka (91306) 0 + 0 + 13 = 13
5:00 Torrance (90503) 6 + 5 + 6 = 17
5:30 Elk Grove (95624) 1 + 6 + 15 = 22
5:30 Northridge (91324) 1 + 2 + 5 = 8
7:30 Northridge (91324) 0 + 2 + 6 = 8
11:00 Temecula (92591) 2 + 1 + 11 = 14
4/27 Saturday
10:00 Temecula (92592) 0 + 4 + 24 = 28
10:00 Lancaster (93534) 1 + 1 + 12 = 14
11:00 Winnetka (91306) 0 + 0 + 8 = 8
11:00 Winnetka (91306) 0 + 0 + 9 = 9
11:00 Winnetka (91306) 0 + 0 + 7 = 7
11:00 Hesperia (92345) 0 + 2 + 10 = 12
12:00 Chatsworth (91311) 0 + 0 + 8 = 8
12:00 Northridge (91324) 0 + 0 + 8 = 8
2:00 Mission Viejo (92692) 3 + 1 + 8 = 12
3:00 Montebello (90640) 0 + 1 + 10 = 11
3:00 Huntington Beach (92647) 1 + 4 + 12 = 17
3:00 Northridge (91324) 0 + 1 + 7 = 8
4/28 Sunday
10:00 Temecula (92592) 0 + 3 + 8 = 11
10:00 Santa Clara (95050) 2 + 1 + 15 = 18
11:00 Winnetka (91306) 0 + 1 + 7 = 8
11:00 Temecula (92591) 8 + 2 + 15 = 25
11:00 Lemon Grove (91945) 0 + 2 + 20 = 22
11:00 Fresno (93710) 2 + 3 + 21 = 26
12:00 Chatsworth (91311) 0 + 1 + 3 = 4
12:00 Northridge (91324) 0 + 1 + 7 = 8
12:00 Upland (91786) 0 + 2 + 9 = 11
1:00 Oceanside (92058) 3 + 2 + 17 = 22
2:00 Hanford (93230) 5 + 4 + 8 = 17
3:00 Northridge (91324) 0 + 2 + 6 = 8
3:00 Upland (91786) 0 + 0 + 10 = 10
Colorado
4/20 Saturday
Johnstown (80534) 1 + 0 + 9 = 10
12:01 Broomfield (80020) 0 + 0 + 20 = 20
9:00 Colorado Springs (80918) 4 + 3 + 23 = 30
10:00 Littleton (80123) 1 + 0 + 15 = 16
10:30 Colorado Springs (80918) 1 + 1 + 19 = 21
11:00 Pueblo (81001) 1 + 2 + 9 = 12
11:00 Johnstown (80534) 1 + 1 + 4 = 6
11:00 Grand Junction (81501) 2 + 2 + 6 = 10
1:00 Greeley (80631) 3 + 6 + 10 = 19
1:00 Littleton (80123) 2 + 0 + 25 = 27
2:00 Longmont (80501) 1 + 2 + 6 = 9
3:00 Colorado Springs (80909) 4 + 3 + 14 = 21
4/21 Sunday
10:00 Fort Collins (80526) 1 + 1 + 6 = 8
11:00 Arvada (80003) 0 + 1 + 6 = 7
12:45 Fort Collins (80526) 1 + 0 + 5 = 6
1:00 Fort Collins (80526) 6 + 2 + 12 = 20
1:00 Littleton (80123) 2 + 0 + 8 = 10
3:00 Northglenn (80234) 0 + 0 + 12 = 12
6:00 pueblo (81001) 0 + 0 + 6 = 6
4/23 Tuesday
4:30 Denver (80203) 3 + 1 + 12 = 16
5:30 Johnstown (80534) 1 + 0 + 7 = 8
4/27 Saturday
10:00 Colorado Springs (80918) 2 + 2 + 8 = 12
3:00 pueblo (81001) 0 + 0 + 6 = 6
3:00 Colorado Springs (80909) 3 + 1 + 21 = 25
3:00 Pueblo (81001) 0 + 0 + 4 = 4
6:30 Pueblo (81001) 0 + 1 + 7 = 8
4/28 Sunday
1:00 Fort Collins (80526) 8 + 7 + 9 = 24
6:30 Pueblo (81001) 4 + 1 + 10 = 15
Connecticut
4/20 Saturday
11:00 Newington (06111) 1 + 3 + 20 = 24
11:00 Enfield (06082) 4 + 2 + 17 = 23
2:00 Newington (06111) 0 + 1 + 10 = 11
4/21 Sunday
11:00 Enfield (06082) 0 + 1 + 7 = 8
4/27 Saturday
11:00 Enfield (06082) 4 + 5 + 17 = 26
11:00 Manchester (06040) 0 + 1 + 8 = 9
11:00 Newington (06111) 1 + 0 + 8 = 9
2:00 Newington (06111) 2 + 1 + 10 = 13
4/28 Sunday
10:00 Danbury (06810) 3 + 4 + 9 = 16
11:00 Enfield (06082) 1 + 5 + 12 = 18
1:00 Danbury (06810) 3 + 9 + 6 = 18
Delaware
4/20 Saturday
12:00 Smyrna (19977) 2 + 7 + 18 = 27
4/28 Sunday
12:00 Wilmington (19810) 2 + 1 + 15 = 18
12:00 Wilmington (19810) 8 + 6 + 25 = 39
2:30 Wilmington (19810) 4 + 1 + 15 = 20
District of Columbia
4/20 Saturday
11:30 Washington (20003) 3 + 3 + 9 = 15
Florida
4/20 Saturday
11:00 Lauderhill (33351) 1 + 0 + 28 = 29
11:00 Clermont (34711) 2 + 4 + 11 = 17
12:00 Crestview (32536) 1 + 1 + 8 = 10
1:30 Palm Bay (32905) 0 + 1 + 9 = 10
2:00 Winter Haven (33884) 0 + 0 + 8 = 8
2:00 West Palm Beach (33409) 1 + 1 + 6 = 8
4:00 Clermont (34711) 1 + 1 + 5 = 7
5:30 Jacksonville (32205) 1 + 1 + 16 = 18
4/21 Sunday
9:00 Jacksonville (32216) 0 + 2 + 17 = 19
10:00 Hollywood (33024) 1 + 1 + 28 = 30
10:00 Hollywood (33024) 0 + 0 + 12 = 12
11:30 PANAMA CITY (32401) 0 + 2 + 8 = 10
2:00 PANAMA CITY (32401) 0 + 2 + 7 = 9
4/22 Monday
3:00 Orlando (32828) 1 + 1 + 3 = 5
3:30 Orlando (32828) 8 + 11 + 58 = 77
6:00 Estero (33928) 0 + 2 + 5 = 7
6:30 Orlando (32828) 0 + 2 + 34 = 36
4/23 Tuesday
6:00 Tallahassee (32310-4805) 1 + 0 + 7 = 8
6:30 PALM HARBOR (34684) 2 + 2 + 12 = 16
4/24 Wednesday
5:00 Cape Coral (33990) 6 + 4 + 14 = 24
7:00 Cape Coral (33990) 0 + 1 + 13 = 14
9:00 Orlando (32837) 1 + 0 + 21 = 22
4/25 Thursday
3:00 Crestview (32536) 4 + 6 + 12 = 22
5:30 Tampa (33647) 1 + 2 + 4 = 7
5:30 Tampa (33619) 1 + 1 + 21 = 23
6:00 Miami (33186) 1 + 2 + 35 = 38
6:00 Maitland (32751) 2 + 2 + 34 = 38
6:00 Port Saint Lucie (34952) 1 + 1 + 16 = 18
9:00 Tampa (33619) 0 + 0 + 9 = 9
10:30 Tampa (33619) 0 + 0 + 4 = 4
4/26 Friday
5:30 Bradenton (34203) 2 + 1 + 11 = 14
6:00 Cape Coral (33990) 1 + 0 + 10 = 11
6:00 Seminole (33772) 1 + 0 + 19 = 20
6:30 Kissimmee (34741) 0 + 0 + 11 = 11
7:45 Cape Coral (33990) 1 + 0 + 7 = 8
4/27 Saturday
10:30 Tampa (33647) 4 + 2 + 4 = 10
10:30 Tampa (33647) 2 + 0 + 2 = 4
11:00 Cape Coral (33990) 5 + 3 + 11 = 19
11:00 Tampa (33617) 6 + 0 + 11 = 17
12:00 Tallahassee (32310) 0 + 0 + 5 = 5
12:00 Tampa (33614) 0 + 1 + 16 = 17
12:00 Ocala (34470) 2 + 2 + 8 = 12
1:00 Pensacola (32504) 0 + 0 + 12 = 12
2:00 Cape Coral (33990) 3 + 1 + 7 = 11
5:00 Altamonte Springs (32701) 4 + 5 + 11 = 20
4/28 Sunday
11:00 Coconut Creek (33073) 8 + 2 + 7 = 17
11:00 Lake Worth (33462) 2 + 0 + 12 = 14
11:00 Orlando (32803) 1 + 4 + 14 = 19
11:00 Sarasota (34232) 3 + 0 + 8 = 11
11:15 West Melbourne (32904) 3 + 1 + 15 = 19
12:00 Miami (33174) 1 + 0 + 12 = 13
12:00 Tampa (33647) 1 + 1 + 10 = 12
2:00 Sarasota (34232) 0 + 1 + 9 = 10
3:00 Tallahassee (32310) 3 + 1 + 13 = 17
4:00 Plantation (33317) 3 + 0 + 10 = 13
5:00 Naples (34104) 1 + 1 + 2 = 4
5:00 Port Saint Lucie (34952-1415) 0 + 2 + 6 = 8
Georgia
4/20 Saturday
12:01 Duluth (30096) 1 + 3 + 34 = 38
12:01 Woodstock (30188) 1 + 1 + 17 = 19
12:01 Roswell (30075) 0 + 0 + 4 = 4
12:01 Macon (31206) 5 + 3 + 23 = 31
10:00 Braselton (30542) 2 + 7 + 7 = 16
11:00 Cumming (30040) 2 + 3 + 4 = 9
12:00 Augusta (30907) 3 + 2 + 19 = 24
12:00 Duluth (30096) 1 + 4 + 7 = 12
12:00 Newnan (30263) 1 + 3 + 5 = 9
12:00 Roswell (30075) 1 + 1 + 2 = 4
12:00 Woodstock (30188) 5 + 3 + 16 = 24
1:30 Cumming (30040) 1 + 1 + 3 = 5
3:00 Roswell (30075) 3 + 1 + 6 = 10
3:00 Macon (31206) 2 + 2 + 11 = 15
4:00 Cumming (30040) 2 + 1 + 5 = 8
5:00 Woodstock (30188) 2 + 0 + 16 = 18
6:00 Roswell (30075) 1 + 1 + 2 = 4
4/21 Sunday
11:45 COLUMBUS (31909) 4 + 3 + 15 = 22
1:00 Milton (30004) 0 + 3 + 5 = 8
1:30 COLUMBUS (31909) 5 + 4 + 13 = 22
5:00 Woodstock (30188) 0 + 0 + 10 = 10
4/22 Monday
5:30 Newnan (30263) 5 + 0 + 2 = 7
4/24 Wednesday
4:00 Kennesaw (30144) 7 + 2 + 18 = 27
4:45 Decatur (30033) 0 + 2 + 6 = 8
7:00 Roswell (30075) 1 + 4 + 5 = 10
4/25 Thursday
7:00 Milton (30004) 0 + 0 + 4 = 4
4/26 Friday
10:00 Woodstock (30188) 0 + 1 + 7 = 8
4/27 Saturday
11:00 Cumming (30040) 1 + 2 + 9 = 12
11:30 Smyrna (30080) 0 + 1 + 10 = 11
12:00 Woodstock (30188) 3 + 2 + 11 = 16
12:30 Chamblee (30341) 0 + 0 + 4 = 4
2:00 Cumming (30040) 0 + 1 + 13 = 14
2:30 Smyrna (30080) 0 + 0 + 8 = 8
5:00 Woodstock (30188) 2 + 1 + 8 = 11
4/28 Sunday
9:00 Dalton (30721) 0 + 0 + 8 = 8
12:00 Woodstock (30188) 2 + 1 + 9 = 12
3:00 Macon (31206) 2 + 0 + 8 = 10
5:00 Woodstock (30188) 1 + 0 + 10 = 11
Hawaii
4/20 Saturday
12:00 Honolulu (96817) 3 + 0 + 6 = 9
3:00 Honolulu (96817) 2 + 0 + 7 = 9
11:00 Honolulu (96814) 0 + 1 + 5 = 6
4/21 Sunday
1:00 Honolulu (96814) 0 + 0 + 6 = 6
3:30 Honolulu (96814) 0 + 0 + 7 = 7
4/27 Saturday
12:00 Honolulu (96817) 0 + 1 + 14 = 15
3:00 Honolulu (96814) 0 + 0 + 4 = 4
3:00 Honolulu (96817) 0 + 1 + 5 = 6
4/28 Sunday
1:30 Honolulu (96814) 0 + 0 + 4 = 4
Idaho
4/20 Saturday
11:00 Meridian (83642) 1 + 3 + 17 = 21
4/27 Saturday
10:00 Idaho Falls (83402) 9 + 6 + 12 = 27
4/28 Sunday
11:00 Nampa (83651) 2 + 1 + 14 = 17
11:00 Boise (83709) 4 + 0 + 6 = 10
Illinois
4/20 Saturday
Berwyn (60402) 1 + 3 + 31 = 35
12:01 Elmhurst (60126) 4 + 0 + 11 = 15
12:01 Chicago (60641) 1 + 0 + 24 = 25
9:30 Downers Grove (60515) 6 + 7 + 7 = 20
10:00 Carbondale (62901) 0 + 0 + 6 = 6
10:00 Berwyn (60402) 2 + 5 + 17 = 24
11:00 Chicago (60611) 0 + 0 + 8 = 8
11:00 Elmhurst (60126) 7 + 1 + 6 = 14
12:00 Springfield (62703) 2 + 5 + 13 = 20
12:00 Chicago (60641) 0 + 0 + 10 = 10
12:00 Washington (61571) 1 + 4 + 14 = 19
12:00 Loves Park (61111) 2 + 2 + 10 = 14
12:30 Plainfield (60544) 2 + 2 + 15 = 19
1:00 Glenview (60025) 1 + 0 + 7 = 8
1:00 Dekalb (60015) 1 + 3 + 5 = 9
1:00 Crystal Lake (60014) 2 + 1 + 5 = 8
2:00 Chicago (60618) 8 + 0 + 0 = 8
2:00 Antioch (60002) 0 + 0 + 8 = 8
2:00 Berwyn (60402) 1 + 4 + 19 = 24
3:00 Chicago (60641) 0 + 1 + 10 = 11
3:00 Frankfort (60423) 1 + 4 + 7 = 12
3:00 Loves Park (61111) 0 + 0 + 9 = 9
6:00 ROCKFORD (61108) 0 + 0 + 4 = 4
6:00 Chicago (60641) 0 + 0 + 10 = 10
4/21 Sunday
10:00 Berwyn (60402) 2 + 3 + 11 = 16
12:00 Edwardsville (62025) 2 + 3 + 10 = 15
12:00 Chicago (60641) 1 + 0 + 7 = 8
12:30 Skokie (60077) 1 + 3 + 6 = 10
2:00 Berwyn (60402) 5 + 1 + 11 = 17
3:00 Chicago (60641) 0 + 0 + 8 = 8
4:00 ROCKFORD (61108) 0 + 0 + 7 = 7
4/22 Monday
5:00 Niles (60714) 7 + 3 + 9 = 19
7:00 Chicago (60641) 0 + 0 + 10 = 10
4/23 Tuesday
11:00 Elmhurst (60126) 2 + 1 + 9 = 12
3:00 Chicago (60618) 8 + 0 + 0 = 8
5:00 Niles (60714) 6 + 1 + 3 = 10
6:00 Chicago (60618) 1 + 0 + 29 = 30
4/24 Wednesday
4:00 Loves Park (61111) 3 + 0 + 14 = 17
5:00 Antioch (60002) 0 + 0 + 8 = 8
7:00 Chicago (60641) 0 + 0 + 20 = 20
4/25 Thursday
6:00 Buffalo Grove (60089) 1 + 2 + 11 = 14
6:00 Chicago (60614) 0 + 0 + 10 = 10
4/26 Friday
5:00 Antioch (60002) 2 + 0 + 7 = 9
6:00 Buffalo Grove (60089) 2 + 1 + 10 = 13
4/27 Saturday
10:00 Chicago (60607) 13 + 2 + 0 = 15
10:00 Berwyn (60402) 6 + 7 + 13 = 26
11:00 urbana (61802) 1 + 1 + 13 = 15
11:00 Chicago (60611) 0 + 0 + 9 = 9
12:00 Quincy (62305) 1 + 1 + 7 = 9
12:00 Chicago (60618) 1 + 1 + 13 = 15
12:00 Loves Park (61111) 1 + 3 + 6 = 10
2:00 Chicago (60618) 12 + 2 + 2 = 16
2:00 Antioch (60002) 3 + 3 + 24 = 30
2:00 Berwyn (60402) 6 + 2 + 8 = 16
3:00 Frankfort (60423) 0 + 3 + 13 = 16
3:00 Loves Park (61111) 0 + 2 + 6 = 8
6:00 ROCKFORD (61108) 0 + 0 + 5 = 5
4/28 Sunday
10:00 Berwyn (60501) 6 + 1 + 15 = 22
12:00 Bloomington (61701) 2 + 2 + 7 = 11
12:00 Edwardsville (62025) 7 + 4 + 15 = 26
12:00 Chicago (60618) 0 + 1 + 24 = 25
12:30 Skokie (60077) 2 + 3 + 7 = 12
1:00 Loves Park (61111) 0 + 3 + 5 = 8
2:00 Antioch (60002) 1 + 2 + 5 = 8
2:00 Chicago (60641) 0 + 0 + 8 = 8
3:00 Skokie (60077) 1 + 3 + 6 = 10
Indiana
4/20 Saturday
10:00 Indianapolis (46227) 2 + 3 + 16 = 21
10:00 New Salisbury (47161) 1 + 1 + 9 = 11
11:00 Indianapolis (46250) 3 + 1 + 15 = 19
11:00 Lafayette (47904) 0 + 0 + 18 = 18
11:00 Indianapolis (46250) 3 + 0 + 11 = 14
11:00 New Salisbury (47161) 1 + 1 + 8 = 10
1:30 Muncie (47303) 0 + 1 + 7 = 8
1:30 Indianapolis (46227) 1 + 7 + 9 = 17
3:00 Indianapolis (46268) 4 + 6 + 6 = 16
3:00 Greenfield (46140) 2 + 0 + 6 = 8
5:00 Evansville (47711) 0 + 0 + 15 = 15
5:30 Indianapolis (46250) 2 + 0 + 6 = 8
6:00 Evansville (47711) 0 + 0 + 12 = 12
4/21 Sunday
1:00 Indianapolis (46250) 3 + 0 + 7 = 10
1:30 Muncie (47303) 0 + 0 + 12 = 12
4/22 Monday
5:15 Indianapolis (46227) 2 + 3 + 26 = 31
4/25 Thursday
4:20 Indianapolis (46241) 5 + 1 + 5 = 11
6:00 Lafayette (47904) 0 + 0 + 4 = 4
4/26 Friday
5:00 Evansville (47711) 0 + 1 + 9 = 10
6:00 Evansville (47711) 0 + 1 + 10 = 11
4/27 Saturday
10:30 Indianapolis (46227) 0 + 0 + 5 = 5
11:00 Indianapolis (46250) 4 + 0 + 4 = 8
1:00 Indianapolis (46227) 0 + 1 + 14 = 15
1:30 Muncie (47303) 1 + 0 + 5 = 6
2:00 Indianapolis (46250) 1 + 0 + 6 = 7
3:00 Indianapolis (46268) 0 + 3 + 3 = 6
5:00 Evansville (47711) 0 + 2 + 11 = 13
6:00 Evansville (47711) 0 + 2 + 12 = 14
4/28 Sunday
11:00 Fort Wayne (46804) 1 + 0 + 3 = 4
12:00 Evansville (47711) 1 + 2 + 7 = 10
12:00 Indianapolis (46250) 0 + 1 + 11 = 12
12:30 Bloomington (47404) 6 + 2 + 8 = 16
1:00 Evansville (47711) 0 + 2 + 11 = 13
2:45 Indianapolis (46250) 0 + 1 + 5 = 6
5:00 Muncie (47303) 0 + 0 + 4 = 4
Iowa
4/27 Saturday
8:00 Ames (50014) 2 + 3 + 13 = 18
4/28 Sunday
11:00 Des Moines (50325) 2 + 2 + 22 = 26
Kansas
4/20 Saturday
12:01 Lenexa (66210) 2 + 3 + 8 = 13
12:00 Great Bend (67530) 6 + 6 + 8 = 20
12:00 Lenexa (66210) 0 + 0 + 18 = 18
12:30 Lawrence (66044) 0 + 3 + 13 = 16
1:00 Hutchinson (67501) 5 + 0 + 15 = 20
2:30 Lenexa (66210) 0 + 1 + 13 = 14
2:30 Leavenworth (66048) 3 + 5 + 12 = 20
2:30 Lenexa (66210) 3 + 1 + 17 = 21
3:00 Lawrence (66044) 3 + 4 + 15 = 22
4/21 Sunday
2:15 Lenexa (66210) 1 + 2 + 17 = 20
4/27 Saturday
2:30 Leavenworth (66048) 4 + 5 + 9 = 18
4/28 Sunday
12:00 Wichita (67218) 4 + 0 + 10 = 14
12:30 Lawrence (66044) 2 + 2 + 13 = 17
Kentucky
4/20 Saturday
12:01 Louisville (40214) 0 + 0 + 35 = 35
12:00 Louisville (40220) 2 + 5 + 15 = 22
6:00 Louisville (40214) 0 + 0 + 27 = 27
4/21 Sunday
1:30 Winchester (40391) 1 + 0 + 15 = 16
6:00 Louisville (40214) 0 + 1 + 24 = 25
4/27 Saturday
11:00 Lexington (40503) 0 + 2 + 9 = 11
12:00 Louisville (40220) 1 + 2 + 10 = 13
4/28 Sunday
1:00 Winchester (40391) 0 + 3 + 12 = 15
Louisiana
4/20 Saturday
9:00 Prairieville (70769) 1 + 1 + 11 = 13
12:00 West Monroe (71291) 1 + 1 + 18 = 20
4/21 Sunday
2:00 Metairie (70003) 2 + 5 + 16 = 23
4/23 Tuesday
5:30 Broussard (70518) 1 + 0 + 13 = 14
4/26 Friday
5:00 Baton Rogue (70816) 1 + 2 + 14 = 17
4/27 Saturday
5:00 Lafayette (70503) 0 + 1 + 12 = 13
4/28 Sunday
12:00 Baton Rouge (70817) 4 + 1 + 16 = 21
12:00 West Monroe (71291) 1 + 1 + 12 = 14
12:00 Bossier City (71111) 0 + 1 + 9 = 10
Maine
4/28 Sunday
12:00 Westbrook (04092) 7 + 6 + 23 = 36
Manitoba
4/20 Saturday
11:00 Winnipeg (R2G 1L4) 0 + 2 + 14 = 16
4/21 Sunday
12:00 Winnipeg (R3T 2C5) 0 + 1 + 8 = 9
4/28 Sunday
12:00 Winnipeg (R2V 3C8) 1 + 3 + 4 = 8
Maryland
4/20 Saturday
10:00 Glen Burnie (21061) 9 + 5 + 7 = 21
11:00 Annapolis (21401) 9 + 5 + 19 = 33
11:30 Rockville (20852) 2 + 1 + 14 = 17
12:00 Abingdon (21009) 2 + 3 + 11 = 16
1:30 Rockville (20852) 1 + 0 + 11 = 12
3:00 Annapolis (21401) 6 + 0 + 11 = 17
4/21 Sunday
2:00 California (20619) 9 + 5 + 15 = 29
4/22 Monday
11:00 Rockville (20852) 5 + 3 + 7 = 15
1:00 Rockville (20852) 3 + 0 + 8 = 11
4/26 Friday
6:00 Rockville (20852) 3 + 1 + 9 = 13
4/28 Sunday
11:30 Rockville (20852) 8 + 6 + 12 = 26
12:00 Hunt Valley (21030) 8 + 4 + 13 = 25
1:00 California (20619) 7 + 8 + 15 = 30
2:00 Rockville (20852) 2 + 4 + 8 = 14
Massachusetts
4/20 Saturday
9:30 Lexington (02420) 7 + 7 + 16 = 30
10:30 CARVER (02330) 1 + 4 + 20 = 25
12:00 Fall River (02723) 0 + 2 + 6 = 8
4/27 Saturday
9:00 Fall River (02723) 0 + 4 + 8 = 12
10:00 Tewksbury (01876) 0 + 1 + 14 = 15
12:00 Abington (02351) 1 + 0 + 7 = 8
7:00 danvers (01923) 1 + 1 + 10 = 12
4/28 Sunday
10:00 SALEM (01970) 5 + 5 + 4 = 14
10:00 New Bedford (02745) 0 + 2 + 8 = 10
10:00 Lexington (02421) 6 + 3 + 9 = 18
11:00 Hadley (01035) 1 + 1 + 11 = 13
11:00 Somerville (02144) 2 + 1 + 8 = 11
12:00 Fall River (02723) 0 + 2 + 4 = 6
12:00 BROCKTON (02302) 1 + 1 + 6 = 8
12:30 Norton (02766) 7 + 5 + 12 = 24
12:30 Saugus (01906) 2 + 6 + 12 = 20
Michigan
4/20 Saturday
12:01 Shelby Charter Township (48317) 1 + 0 + 45 = 46
2:00 Shelby Charter Township (48317) 0 + 0 + 28 = 28
11:00 Jackson (49201) 0 + 1 + 15 = 16
11:00 Marquette (49855) 0 + 0 + 4 = 4
11:00 East Lansing (48823) 1 + 2 + 18 = 21
11:30 Garden City (48135) 0 + 1 + 25 = 26
11:30 Charter Township of Shelby (48317) 1 + 0 + 9 = 10
12:00 Bay City (48706) 1 + 1 + 10 = 12
12:00 Frankenmuth (48734) 2 + 1 + 7 = 10
12:00 Kalamazoo (49009) 3 + 1 + 18 = 22
12:00 Clinton Township (48038) 3 + 5 + 15 = 23
1:30 Charter Township of Shelby (48317) 1 + 0 + 35 = 36
2:00 Jackson (49201) 0 + 3 + 15 = 18
3:00 Frankenmuth (48734) 1 + 1 + 2 = 4
3:00 Clinton Township (48038) 0 + 0 + 4 = 4
3:30 Garden City (48135) 0 + 1 + 23 = 24
4:00 Battle Creek (49015) 2 + 2 + 4 = 8
5:00 Jackson (49201) 0 + 3 + 12 = 15
5:00 Kalamazoo (49009) 0 + 2 + 14 = 16
6:00 Clinton Township (48038) 1 + 1 + 5 = 7
11:00 Clinton Township (48038) 0 + 0 + 11 = 11
4/22 Monday
4:45 Grandville (49418) 3 + 3 + 12 = 18
4/24 Wednesday
6:00 Garden City (48135) 2 + 0 + 7 = 9
6:00 Jackson (49201) 0 + 0 + 10 = 10
4/27 Saturday
11:30 Garden City (48135) 3 + 0 + 11 = 14
12:00 Clinton Township (48038) 1 + 1 + 16 = 18
12:00 Frankenmuth (48734) 1 + 1 + 2 = 4
3:00 Clinton Township (48038) 0 + 0 + 7 = 7
4/28 Sunday
11:00 Westland (48185) 0 + 1 + 3 = 4
12:00 Ludington (49431) 0 + 0 + 11 = 11
2:00 Clinton Township (48038) 1 + 3 + 10 = 14
4:00 Clinton Township (48038) 0 + 0 + 8 = 8
Minnesota
4/20 Saturday
10:00 Duluth (55807) 6 + 7 + 22 = 35
10:00 Saint Louis Park (55426) 2 + 15 + 17 = 34
10:15 Roseville (55113) 4 + 3 + 15 = 22
11:00 northfield (55057) 12 + 6 + 5 = 23
11:00 Cambridge (55008) 0 + 4 + 7 = 11
11:00 South St. Paul (55075) 0 + 0 + 8 = 8
11:00 Waite park (56387) 3 + 2 + 5 = 10
12:00 Mankato (56001) 4 + 2 + 6 = 12
1:30 Winona (55987) 1 + 0 + 7 = 8
5:00 Eagan (55123) 2 + 1 + 7 = 10
4/21 Sunday
11:00 Duluth (55807) 2 + 0 + 7 = 9
4/22 Monday
5:00 Burnsville (55306) 2 + 3 + 20 = 25
4/26 Friday
5:00 Maplewood (55109) 4 + 2 + 17 = 23
4/27 Saturday
10:00 Champlin (55316) 2 + 10 + 16 = 28
12:00 Mankato (56001) 2 + 2 + 4 = 8
4/28 Sunday
12:00 Minneapolis (55406) 4 + 8 + 12 = 24
Mississippi
4/20 Saturday
12:01 Pearl (39208) 0 + 1 + 9 = 10
9:00 Ridgeland (39157) 7 + 1 + 5 = 13
12:00 Gautier (39553) 0 + 0 + 8 = 8
12:00 Pearl (39208) 0 + 2 + 7 = 9
5:00 Pearl (39208) 0 + 2 + 8 = 10
4/21 Sunday
1:00 Ridgeland (39157) 0 + 3 + 5 = 8
4/23 Tuesday
4:00 Gautier (39553) 1 + 1 + 9 = 11
4/27 Saturday
10:00 Hattiesburg (39402) 1 + 0 + 20 = 21
12:00 Pearl (39208) 0 + 0 + 5 = 5
12:00 Gautier (39553) 4 + 1 + 16 = 21
5:00 Pearl (39208) 0 + 3 + 20 = 23
4/28 Sunday
12:00 Tupelo (38804) 2 + 1 + 14 = 17
2:00 Pearl (39208) 0 + 0 + 6 = 6
Missouri
4/20 Saturday
12:01 Crestwood (63126) 1 + 1 + 21 = 23
12:01 Independence (64050) 2 + 4 + 14 = 20
3:00 Independence (64050) 0 + 0 + 6 = 6
9:00 West Plains (65775) 2 + 2 + 6 = 10
10:00 Columbia (65202) 4 + 4 + 25 = 33
12:00 Saint Louis (63128) 3 + 3 + 6 = 12
12:00 West Plains (65775) 3 + 3 + 12 = 18
12:00 O'Fallon (63366) 0 + 7 + 8 = 15
12:00 Independence (64050) 0 + 0 + 8 = 8
1:30 Sedalia (65301) 4 + 2 + 9 = 15
3:00 Independence (64050) 0 + 0 + 5 = 5
5:30 Creve Coeur (63141) 1 + 1 + 13 = 15
6:00 Independence (64050) 0 + 0 + 4 = 4
4/21 Sunday
1:30 Sedalia (65301) 2 + 3 + 9 = 14
1:30 Independence (64050-3705) 0 + 1 + 3 = 4
3:30 Sedalia (65301) 2 + 3 + 13 = 18
4:00 Independence (64050-3705) 0 + 0 + 4 = 4
4/22 Monday
9:00 St. Peters (63303) 2 + 3 + 14 = 19
4/24 Wednesday
6:30 Crestwood (63126) 2 + 3 + 30 = 35
4/26 Friday
9:00 St. Peters (63303) 5 + 6 + 11 = 22
4/27 Saturday
12:00 Independence (64050-3705) 1 + 0 + 9 = 10
12:30 Bolivar (65613) 4 + 2 + 5 = 11
2:15 Independence (64050-3705) 1 + 1 + 7 = 9
4/28 Sunday
12:30 Crestwood (63126) 3 + 3 + 10 = 16
Montana
4/20 Saturday
11:00 Missoula (59801) 0 + 0 + 8 = 8
Nebraska
4/20 Saturday
10:00 Omaha (68164) 1 + 2 + 12 = 15
10:00 Omaha (68164) 2 + 2 + 14 = 18
10:00 McCook (69001) 1 + 5 + 3 = 9
4:00 Omaha (68144) 0 + 3 + 10 = 13
10:00 Omaha (68164) 1 + 0 + 21 = 22
4/21 Sunday
12:00 Kearney (68845) 2 + 4 + 7 = 13
4/22 Monday
5:00 Omaha (68144) 0 + 2 + 15 = 17
7:00 Omaha (68144) 0 + 0 + 8 = 8
4/23 Tuesday
11:00 Bellevue (68005) 4 + 6 + 16 = 26
4/25 Thursday
4:00 Omaha (68164) 0 + 0 + 12 = 12
7:00 Omaha (68164) 0 + 0 + 9 = 9
4/26 Friday
5:30 Omaha (68134) 11 + 4 + 25 = 40
4/28 Sunday
1:00 Lincoln (68506) 5 + 6 + 15 = 26
Nevada
4/20 Saturday
11:00 Reno (89502) 3 + 2 + 20 = 25
12:00 Las Vegas (89146) 1 + 1 + 13 = 15
4:00 Reno (89502) 1 + 1 + 9 = 11
4/21 Sunday
2:00 Las Vegas (89121) 0 + 0 + 10 = 10
4/24 Wednesday
11:00 Las Vegas (89131) 1 + 2 + 21 = 24
New Brunswick
4/20 Saturday
11:30 Saint John (E2L2H3) 1 + 3 + 12 = 16
4/27 Saturday
11:00 Moncton (E1C2N4) 0 + 2 + 4 = 6
4/28 Sunday
12:30 Fredericton (E3B 3B9) 0 + 3 + 7 = 10
New Hampshire
4/20 Saturday
10:00 Nashua (03063) 7 + 1 + 8 = 16
2:00 Rochester (03867) 0 + 5 + 12 = 17
2:00 Londonderry (03053) 3 + 0 + 7 = 10
4/25 Thursday
5:00 Rochester (03867) 0 + 5 + 14 = 19
4/27 Saturday
10:00 Concord (03301) 0 + 0 + 0 = 8
2:00 Londonderry (03053) 5 + 0 + 11 = 16
4/28 Sunday
10:00 Rochester (03867) 2 + 1 + 12 = 15
11:00 Manchester (03103) 1 + 1 + 4 = 6
2:00 Nashua (03063) 4 + 4 + 5 = 13
New Jersey
4/20 Saturday
Boonton (07005) 0 + 0 + 15 = 15
9:00 Cedar Grove (07009) 4 + 6 + 15 = 25
10:00 Hamilton (08619) 6 + 3 + 11 = 20
10:30 somerville (08876) 0 + 1 + 6 = 7
11:00 Egg Harbor Township (08234) 3 + 0 + 9 = 12
11:00 Cedar Grove (07009) 0 + 1 + 7 = 8
12:00 Cedar Grove (07009) 1 + 1 + 6 = 8
12:00 Livingston (07039) 13 + 7 + 6 = 26
1:00 Haddon Township (08108) 3 + 1 + 13 = 17
2:00 Egg Harbor Township (08234) 1 + 0 + 7 = 8
4/26 Friday
6:00 Boonton (07005) 9 + 2 + 14 = 25
4/27 Saturday
11:00 Hillsdale (07642) 3 + 2 + 7 = 12
12:00 Franklin (07416) 1 + 3 + 11 = 15
12:30 Pompton Plains (07444) 2 + 4 + 8 = 14
1:00 Franklin (07416) 1 + 3 + 8 = 12
3:00 Clifton (07012) 2 + 2 + 16 = 20
4/28 Sunday
11:00 Randolph (07869) 2 + 2 + 9 = 13
12:00 Boonton (07005) 5 + 3 + 10 = 18
12:30 Cinnaminson (08077) 2 + 1 + 21 = 24
3:00 Cinnaminson (08077) 1 + 1 + 9 = 11
New Mexico
4/20 Saturday
10:00 Albuquerque (87106) 1 + 1 + 7 = 9
4/22 Monday
6:00 Albuquerque (87106) 0 + 0 + 8 = 8
New York
4/20 Saturday
Kenmore (14217) 0 + 1 + 13 = 14
9:00 Catskill (12414) 4 + 1 + 8 = 13
9:30 New York (10016) 1 + 1 + 28 = 30
10:00 Rochester (14623) 3 + 2 + 27 = 32
10:00 CROTON ON HUDSON (10520) 0 + 11 + 13 = 24
11:00 Brooklyn (11229) 0 + 1 + 14 = 15
11:00 Mechanicville (12118) 0 + 1 + 17 = 18
11:00 Whitesboro (13492) 1 + 0 + 9 = 10
12:00 Lindenhurst (11757) 3 + 0 + 15 = 18
12:00 Nanuet (10954) 3 + 2 + 7 = 12
12:30 Wantagh (11793) 3 + 4 + 7 = 14
1:00 Flushing (11354) 0 + 1 + 14 = 15
2:00 Rochester (14623) 0 + 2 + 15 = 17
2:30 Brooklyn (11229) 0 + 1 + 7 = 8
2:30 Selden (11784) 0 + 2 + 10 = 12
3:00 Lindenhurst (11757) 1 + 0 + 10 = 11
4:00 Kenmore (14217) 2 + 4 + 10 = 16
4:00 Wantagh (11793) 2 + 5 + 5 = 12
4:00 Albany (12205) 2 + 1 + 9 = 12
4/21 Sunday
9:30 New York (10016) 0 + 2 + 12 = 14
10:30 East Greenbush (12061) 0 + 0 + 10 = 10
12:00 Kenmore (14217) 3 + 3 + 25 = 31
12:00 New York (10016) 0 + 1 + 9 = 10
12:00 Brooklyn (11231) 4 + 5 + 5 = 14
1:00 Flushing (11354) 0 + 0 + 8 = 8
2:00 Clifton Park (12065) 0 + 0 + 7 = 7
4/22 Monday
5:30 Eden (14057) 6 + 5 + 22 = 33
6:00 Rochester (14623) 0 + 1 + 13 = 14
4/23 Tuesday
6:00 Selden (11784) 0 + 1 + 14 = 15
4/24 Wednesday
6:00 Selden (11784) 1 + 2 + 15 = 18
4/25 Thursday
6:00 Selden (11784) 0 + 2 + 10 = 12
6:00 Albany (12205) 1 + 2 + 11 = 14
4/26 Friday
4:00 Amsterdam (12010) 0 + 0 + 10 = 10
5:30 derby (14047) 2 + 6 + 15 = 23
4/27 Saturday
10:00 CROTON ON HUDSON (10520) 3 + 10 + 9 = 22
11:00 Whitesboro (13492) 0 + 1 + 7 = 8
12:00 Brooklyn (11232) 0 + 0 + 8 = 8
12:00 Williamsville (14221) 10 + 4 + 13 = 27
12:00 Lindenhurst (11757) 2 + 1 + 8 = 11
1:00 Oneida (13421) 5 + 7 + 16 = 28
2:00 Lynbrook (11563) 3 + 2 + 14 = 19
4:00 Kenmore (14217) 0 + 2 + 8 = 10
6:00 Brooklyn (11214) 0 + 0 + 10 = 10
4/28 Sunday
12:00 Poughkeepsie (12601) 0 + 4 + 6 = 10
12:00 Rochester (14625) 9 + 3 + 8 = 20
12:00 Kenmore (14217) 1 + 0 + 7 = 8
2:00 Lynbrook (11563) 7 + 1 + 6 = 14
North Carolina
4/20 Saturday
9:30 Cary (27511) 3 + 6 + 13 = 22
10:00 Mint Hill (28227) 5 + 5 + 5 = 15
10:30 High Point (27263) 2 + 1 + 16 = 19
10:30 Charlotte (28214) 6 + 2 + 7 = 15
11:00 Greenville (27858) 2 + 1 + 8 = 11
11:00 Hickory (28602) 2 + 5 + 13 = 20
11:29 Kannapolis (28083) 2 + 1 + 5 = 8
12:00 JACKSONVILLE (28546) 4 + 2 + 17 = 23
12:00 Charlotte (28262) 1 + 1 + 8 = 10
12:00 Cornelius (28031) 1 + 0 + 9 = 10
12:00 Cary (27511) 6 + 0 + 6 = 12
12:00 Asheville (28803) 0 + 4 + 8 = 12
12:01 Statesville (28625) 0 + 1 + 14 = 15
1:00 Wilmington (28403) 2 + 3 + 13 = 18
1:00 Charlotte (28214) 3 + 0 + 5 = 8
1:40 Cary (27511) 0 + 1 + 7 = 8
3:00 Statesville (28625) 0 + 2 + 10 = 12
3:30 Kannapolis (28083) 0 + 0 + 8 = 8
4:00 Charlotte (28214) 0 + 0 + 6 = 6
4/21 Sunday
11:00 Raleigh (27612) 1 + 0 + 7 = 8
11:00 Durham (27707) 4 + 6 + 8 = 18
12:00 Greenville (27858) 2 + 1 + 3 = 6
12:00 Wilson (27893) 1 + 1 + 6 = 8
3:30 Charlotte (28214) 2 + 1 + 9 = 12
4/24 Wednesday
5:00 Charlotte (28214) 0 + 5 + 13 = 18
4/26 Friday
7:00 Charlotte (28214) 2 + 2 + 5 = 9
4/27 Saturday
10:30 Charlotte (28214) 4 + 0 + 4 = 8
1:00 Statesville (28625) 1 + 1 + 11 = 13
1:00 Wilmington (28403) 4 + 1 + 9 = 14
1:00 Cary (27511) 0 + 1 + 8 = 9
4/28 Sunday
12:00 Raleigh (27603) 3 + 5 + 10 = 18
12:30 Kannapolis (28083) 4 + 1 + 8 = 13
1:00 Wilmington (28403) 2 + 2 + 14 = 18
1:00 Wilson (27893) 0 + 0 + 8 = 8
3:00 Charlotte (28205) 0 + 0 + 4 = 4
3:30 Kannapolis (28083) 0 + 0 + 8 = 8
North Dakota
4/25 Thursday
5:30 Fargo (58103) 0 + 1 + 10 = 11
Nova Scotia
4/20 Saturday
12:30 Halifax (B3L 1A4) 3 + 4 + 14 = 21
4/21 Sunday
12:30 Halifax (B3L 1A4) 0 + 2 + 10 = 12
Ohio
4/20 Saturday
Dublin (43017) 0 + 0 + 23 = 23
12:05 Findlay (45840) 3 + 1 + 18 = 22
9:00 Dublin (43017) 4 + 0 + 6 = 10
10:00 North Olmsted (44070) 5 + 4 + 23 = 32
11:30 Belpre (45714) 1 + 1 + 11 = 13
12:00 Mentor (44060) 2 + 1 + 12 = 15
12:00 Findlay (45840) 3 + 1 + 16 = 20
12:00 North Olmsted (44070) 1 + 2 + 17 = 20
1:30 Dublin (43017) 0 + 1 + 8 = 9
2:30 Columbus (43214) 1 + 1 + 4 = 6
3:00 Strongsville (44136) 1 + 3 + 16 = 20
4:00 Ashtabula (44004) 2 + 2 + 26 = 30
4:00 Dublin (43017) 5 + 1 + 8 = 14
5:00 Toledo (43613) 3 + 4 + 29 = 36
5:00 Kent (44242) 0 + 2 + 4 = 6
6:30 Columbus (43214) 0 + 0 + 8 = 8
4/21 Sunday
1:00 Berea (44017) 0 + 2 + 7 = 9
1:30 Streetsboro (44241) 0 + 0 + 8 = 8
4/22 Monday
5:15 Green (44685) 4 + 1 + 16 = 21
4/23 Tuesday
6:30 Columbus (43229) 2 + 3 + 14 = 19
4/24 Wednesday
5:15 North Canton (44720) 0 + 3 + 19 = 22
6:00 Akron (44308) 0 + 2 + 32 = 34
4/25 Thursday
5:00 Ashtabula (44004) 1 + 3 + 20 = 24
5:00 Massillon (44646) 1 + 1 + 14 = 16
5:00 Toledo (43623) 0 + 2 + 10 = 12
6:00 Avon (44011) 1 + 0 + 7 = 8
6:00 Dayton (45419) 5 + 0 + 21 = 26
4/27 Saturday
11:00 Columbus (43210) 0 + 0 + 4 = 4
11:00 Green (44685) 3 + 1 + 8 = 12
1:00 Columbus (43210) 0 + 0 + 9 = 9
5:00 Kent (44242) 0 + 2 + 5 = 7
5:00 Portsmouth (45662) 0 + 0 + 16 = 16
4/28 Sunday
11:00 Sandusky (44870) 0 + 0 + 8 = 8
12:00 Kettering (45429) 6 + 3 + 41 = 50
12:00 Galion (44833) 1 + 0 + 10 = 11
12:15 Alliance (44601) 1 + 2 + 17 = 20
1:00 Sandusky (44870) 0 + 1 + 8 = 9
3:30 Dublin (43017) 6 + 4 + 4 = 14
5:00 Mansfield (44907) 2 + 0 + 8 = 10
5:00 Avon (44011) 1 + 0 + 8 = 9
Oklahoma
4/20 Saturday
12:01 Tulsa (74112) 2 + 2 + 19 = 23
3:00 Tulsa (74112) 1 + 3 + 15 = 19
12:00 Moore (73160) 5 + 1 + 18 = 24
12:00 Jenks (74037) 1 + 4 + 7 = 12
4:30 WOODWARD (73801) 2 + 2 + 4 = 8
4/21 Sunday
1:00 Stillwater (74074) 1 + 0 + 10 = 11
4/22 Monday
5:00 Norman (73069) 0 + 1 + 22 = 23
4/25 Thursday
5:00 Stillwater (74074) 2 + 0 + 7 = 9
4/27 Saturday
11:30 Lawton (73501) 3 + 5 + 17 = 25
12:00 Jenks (74037) 0 + 4 + 7 = 11
4/28 Sunday
12:00 Tulsa (74133) 9 + 10 + 30 = 49
Ontario
4/20 Saturday
12:01 Toronto (M1V 1K4) 1 + 0 + 31 = 32
12:05 Brampton (L6Y 1L9) 0 + 1 + 8 = 9
9:00 Oshawa (L1G 1K6) 3 + 5 + 14 = 22
10:00 Mississauga (L5A 3Y1) 6 + 7 + 26 = 39
10:00 Toronto (M1V 1K4) 5 + 1 + 14 = 20
10:30 Burlington (L7R 2E4) 1 + 1 + 9 = 11
11:00 oakville (L6K2G3) 6 + 3 + 14 = 23
11:00 Toronto (M4Y 1X9) 7 + 5 + 35 = 47
11:00 North York (M4N 2N4) 0 + 1 + 7 = 8
11:30 Vaughan (L4J7Y3) 1 + 0 + 9 = 10
11:30 Vaughan (L4K 2A1) 1 + 2 + 18 = 21
12:00 Kitchener (N2G 2L2) 4 + 2 + 12 = 18
12:00 Ottawa (K2J 5G4) 5 + 7 + 11 = 23
12:10 Windsor (N8W 1C2) 3 + 0 + 11 = 14
1:00 Markham (L3R 9Y2) 3 + 1 + 28 = 32
1:00 Barrie (L4N5W4) 0 + 1 + 7 = 8
2:30 Vaughan (L4J7Y3) 1 + 3 + 8 = 12
3:30 Markham (L3R 9Y2) 1 + 0 + 21 = 22
5:00 Toronto (M4E1E8) 4 + 1 + 7 = 12
5:00 Kitchener (N2G 2L2) 1 + 3 + 8 = 12
6:00 Markham (L3R 9Y2) 2 + 1 + 23 = 26
6:00 Vaughan (L4K 2A1) 3 + 9 + 34 = 46
4/21 Sunday
10:00 Whitby (L1N 8R3) 3 + 2 + 15 = 20
10:00 Milton (L9T 5B2) 4 + 2 + 13 = 19
10:30 Hamilton (L8T 2R5) 2 + 6 + 16 = 24
11:00 oakville (L6K2G3) 3 + 3 + 11 = 17
11:00 Mississauga (L5N 6A3) 3 + 5 + 7 = 15
11:00 Peterborough (K9J 3H2) 0 + 0 + 10 = 10
11:30 Vaughan (L4J7Y3) 1 + 0 + 7 = 8
1:00 Ajax (L1S 7J4) 0 + 1 + 7 = 8
1:00 Ridgeway (L0S 1N0) 1 + 2 + 5 = 8
3:00 Vaughan (L4J7Y3) 2 + 1 + 13 = 16
3:00 Toronto (M1V 1K4) 0 + 0 + 14 = 14
5:00 Toronto (M1V 1K4) 3 + 0 + 13 = 16
7:00 Vaughan (L4J7Y3) 0 + 0 + 23 = 23
4/22 Monday
5:00 oakville (L6K2G3) 2 + 4 + 11 = 17
5:00 Kitchener (N2G 2L2) 2 + 5 + 13 = 20
6:00 Kingston (K7P 2S7) 0 + 0 + 8 = 8
4/23 Tuesday
5:00 Welland (L3C1L8) 1 + 3 + 13 = 17
4/26 Friday
5:00 Toronto (M4E1E8) 7 + 1 + 2 = 10
7:00 Toronto (M1V 1K4) 3 + 2 + 11 = 16
4/27 Saturday
9:00 Orangeville (L9W 1K2) 3 + 1 + 4 = 8
10:00 Mississauga (L5A 3Y1) 5 + 2 + 12 = 19
11:00 Mississauga (L5J 3S8) 2 + 0 + 6 = 8
11:30 Mississauga (L5L 3A2) 1 + 7 + 11 = 19
1:00 Cambridge (N3C 2A7) 2 + 1 + 7 = 10
1:00 Barrie (L4N5W4) 3 + 4 + 14 = 21
5:00 Toronto (M4E1E8) 2 + 1 + 5 = 8
4/28 Sunday
10:00 Milton (L9T 5B2) 4 + 3 + 9 = 16
11:00 Kingston (K7L 1G2) 0 + 3 + 10 = 13
2:10 Windsor (N8W 1C2) 3 + 2 + 6 = 11
Oregon
4/20 Saturday
Troutdale (97060) 4 + 3 + 15 = 22
12:01 Sherwood (97140) 0 + 1 + 14 = 15
9:30 Aloha (97003) 8 + 5 + 5 = 18
11:00 Salem (97301) 9 + 10 + 24 = 43
11:00 Portland (97202) 9 + 1 + 3 = 13
11:00 Milwaukie (97267) 4 + 0 + 21 = 25
12:00 Hillsboro (97123) 0 + 2 + 12 = 14
2:00 Portland (97214) 7 + 8 + 24 = 39
2:00 Medford (97501) 1 + 5 + 10 = 16
5:00 Portland (97214) 1 + 1 + 12 = 14
4/21 Sunday
12:00 Wilsonville (97070) 4 + 5 + 14 = 23
4/22 Monday
5:30 Troutdale (97060) 11 + 3 + 7 = 21
4/23 Tuesday
5:30 Milwaukie (97032) 5 + 4 + 19 = 28
4/26 Friday
6:00 Cottage Grove (97424) 11 + 3 + 13 = 27
4/27 Saturday
10:00 Bend (97702) 5 + 7 + 5 = 17
4/28 Sunday
10:00 Portland (97206) 3 + 1 + 19 = 23
11:00 Beaverton (97005) 1 + 1 + 23 = 25
Pennsylvania
4/20 Saturday
12:01 Lancaster (17603) 1 + 1 + 13 = 15
12:01 Philadelphia (19152) 1 + 0 + 9 = 10
12:05 Indiana (15701) 0 + 0 + 13 = 13
9:00 Monroeville (15146) 5 + 3 + 8 = 16
10:00 Lancaster (17603) 0 + 1 + 7 = 8
10:30 Gettysburg (17325) 3 + 4 + 16 = 23
11:00 COOPERSBURG (18036) 2 + 2 + 11 = 15
11:00 Mechanicsburg (17050) 6 + 2 + 9 = 17
12:00 Ebensburg (15931) 2 + 0 + 6 = 8
12:00 Tyrone (16686) 0 + 2 + 10 = 12
12:00 Altoona (16602) 4 + 0 + 5 = 9
12:00 Lock Haven (17745) 0 + 1 + 10 = 11
12:00 Pleasant Hills (15236) 2 + 4 + 57 = 63
12:00 East Norriton (19401) 2 + 1 + 15 = 18
12:00 York (17402) 3 + 3 + 10 = 16
12:00 Greensburg (15601) 0 + 0 + 13 = 13
1:00 Stroudsburg (18360) 1 + 2 + 11 = 14
1:30 West Chester (19380) 3 + 3 + 10 = 16
2:30 East Norriton (19401) 0 + 1 + 8 = 9
2:30 York (17402) 1 + 4 + 11 = 16
3:00 COOPERSBURG (18036) 1 + 0 + 7 = 8
4:00 Stroudsburg (18360) 0 + 2 + 7 = 9
4:00 Cranberry Township (16066) 0 + 1 + 9 = 10
4/21 Sunday
12:00 Boyertown (19512) 3 + 5 + 10 = 18
2:30 LEBANON (17042) 0 + 0 + 16 = 16
4/23 Tuesday
4:00 Lancaster (17603) 0 + 0 + 8 = 8
4/24 Wednesday
4:00 Pittsburgh (15232) 3 + 2 + 21 = 26
5:00 sharon (16146) 1 + 1 + 11 = 13
6:00 Chambersburg (17201) 3 + 2 + 19 = 24
4/25 Thursday
5:30 Lancaster (17603) 2 + 1 + 11 = 14
4/26 Friday
6:00 West Chester (19380) 3 + 2 + 9 = 14
4/27 Saturday
11:00 COOPERSBURG (18036) 2 + 2 + 15 = 19
12:00 Bellefonte (16823) 0 + 1 + 8 = 9
1:30 West Chester (19380) 3 + 2 + 7 = 12
2:00 Erie (16507) 3 + 2 + 10 = 15
4/28 Sunday
11:00 Philadelphia (19152) 1 + 0 + 11 = 12
1:00 Stroudsburg (18360) 2 + 2 + 11 = 15
1:30 Indiana (15701) 3 + 1 + 10 = 14
2:00 Grove City (16127) 1 + 0 + 18 = 19
3:00 Dickson City (18519) 2 + 2 + 10 = 14
3:00 New Holland (17557) 0 + 0 + 4 = 4
4:00 Stroudsburg (18360) 1 + 4 + 11 = 16
Puerto Rico
4/20 Saturday
12:00 Aguadilla (00603) 0 + 0 + 18 = 18
12:00 Caguas (00725) 1 + 1 + 40 = 42
4/21 Sunday
2:00 Carolina (00983) 0 + 0 + 22 = 22
4/27 Saturday
3:00 Mayaguez (00682) 0 + 1 + 23 = 24
7:00 Mayaguez (00682) 0 + 0 + 5 = 5
Quebec
4/20 Saturday
9:00 Saint-Jerome (J7Z5B8) 2 + 2 + 7 = 11
9:00 sherbrooke (J1J 2N9) 4 + 4 + 4 = 12
9:30 joliette (J6E 5E8) 1 + 3 + 12 = 16
10:00 Gatineau (J9H 6J5) 3 + 1 + 10 = 14
10:00 Chateauguay (J6K 1C4) 2 + 4 + 6 = 12
10:00 ste-therese (J7E3H5) 4 + 0 + 6 = 10
11:00 Quebec (G1G 5X3) 0 + 1 + 22 = 23
11:00 Montreal (H3B 1H5) 0 + 0 + 13 = 13
11:00 Québec (G1K 3B9) 0 + 0 + 10 = 10
12:00 Sherbrooke (J1H 5A9) 4 + 4 + 2 = 10
12:00 Montreal (H2K2H9) 1 + 1 + 17 = 19
12:00 Chateauguay (J6K 3J9) 0 + 0 + 17 = 17
12:00 Trois-Rivières (G8Y 1W2) 3 + 2 + 13 = 18
1:00 joliette (J6E 5E8) 0 + 1 + 8 = 9
1:00 Gatineau (J9H 6J5) 2 + 0 + 5 = 7
1:00 Montreal (H3L 2E8) 1 + 0 + 7 = 8
3:00 Gatineau (J9H 6J5) 3 + 3 + 10 = 16
3:00 Québec (G1K 3B9) 0 + 1 + 15 = 16
5:00 Longueuil (J4K 2C5) 1 + 1 + 30 = 32
5:00 Granby (J2G 2V6) 4 + 4 + 8 = 16
4/21 Sunday
9:30 joliette (J6E 5E8) 4 + 5 + 15 = 24
9:30 Beloeil (J3G 2M9) 2 + 1 + 10 = 13
10:00 Chateauguay (J6K 1C4) 1 + 2 + 5 = 8
11:00 Quebec (G1G 5X3) 1 + 0 + 17 = 18
11:00 Montreal (H3B 1H5) 0 + 3 + 5 = 8
12:00 Chateauguay (J6K 3J9) 0 + 0 + 11 = 11
1:00 Beloeil (J3G 2M9) 1 + 2 + 5 = 8
4/23 Tuesday
10:00 ste-therese (J7E3H5) 0 + 0 + 10 = 10
5:00 Montreal (H3B 1H5) 0 + 0 + 19 = 19
4/24 Wednesday
5:30 Verdun (Montreal) (H4G-1W6) 0 + 0 + 10 = 10
4/25 Thursday
9:00 Saint-Jerome (J7Z5B8) 0 + 1 + 14 = 15
4/26 Friday
5:00 Québec (G1V4P7) 0 + 0 + 9 = 9
4/27 Saturday
10:00 Chateauguay (J6K 1C4) 0 + 1 + 3 = 4
11:00 Montreal (H3B 1H5) 1 + 0 + 9 = 10
12:00 Chateauguay (J6K 3J9) 0 + 0 + 12 = 12
1:00 montreal (H4G 1W5) 2 + 1 + 5 = 8
4/28 Sunday
9:00 Saint-Jerome (J7Z5B8) 1 + 3 + 10 = 14
10:00 Chateauguay (J6K 1C4) 1 + 0 + 9 = 10
11:00 Montreal (H3B 1H5) 3 + 0 + 7 = 10
11:00 Verdun (Montreal) (H4G-1W6) 1 + 0 + 7 = 8
12:00 Chateauguay (J6K 3J9) 0 + 0 + 8 = 8
12:00 Trois-Rivières (G8Y 1W2) 3 + 2 + 9 = 14
2:00 Laval (H7L 1M2) 0 + 1 + 7 = 8
Rhode Island
4/20 Saturday
1:15 Warwick (02888) 7 + 1 + 16 = 24
12:00 Pawtucket (02860) 3 + 2 + 8 = 13
Saskatchewan
4/27 Saturday
9:00 Saskatoon (S7H 2P6) 3 + 1 + 13 = 17
South Carolina
4/20 Saturday
Rock Hill (29732) 2 + 1 + 20 = 23
10:30 Columbia (29210) 3 + 3 + 19 = 25
11:00 Lexington (29072) 2 + 2 + 16 = 20
12:00 Summerville (29485) 1 + 0 + 10 = 11
1:00 Easley (29640) 2 + 0 + 9 = 11
1:30 Rock Hill (29730) 3 + 8 + 4 = 15
2:00 Anderson (29621) 1 + 2 + 5 = 8
4:00 Summerville (29485) 1 + 0 + 7 = 8
5:00 Greenville (29607) 4 + 3 + 13 = 20
4/21 Sunday
12:00 Summerville (29485) 0 + 0 + 8 = 8
2:00 Anderson (29621) 0 + 2 + 8 = 10
4/23 Tuesday
6:00 Greenville (29607) 0 + 4 + 13 = 17
4/25 Thursday
6:00 Easley (29640) 2 + 0 + 9 = 11
4/26 Friday
6:30 Rock Hill (29730) 3 + 4 + 18 = 25
4/27 Saturday
11:00 Greenville (29609) 1 + 1 + 4 = 6
11:00 Rock Hill (29730) 0 + 0 + 9 = 9
2:00 Anderson (29621) 0 + 0 + 15 = 15
2:30 Rock Hill (29730) 2 + 1 + 6 = 9
4:00 Greenville (29609) 1 + 0 + 3 = 4
4/28 Sunday
2:00 Greenville (29609) 1 + 1 + 2 = 4
2:00 Anderson (29621) 0 + 0 + 6 = 6
South Dakota
4/20 Saturday
9:00 Sioux Falls (57104) 3 + 6 + 15 = 24
11:00 Rapid City (57701) 2 + 4 + 12 = 18
2:00 Sioux Falls (57104) 3 + 9 + 12 = 24
Tennessee
4/20 Saturday
12:01 Madison (37115) 0 + 0 + 20 = 20
10:00 Memphis (38133) 2 + 2 + 24 = 28
10:00 Murfreesboro (37129) 2 + 3 + 13 = 18
10:00 Clarksville (37042) 3 + 4 + 16 = 23
11:00 Madison (37115) 0 + 0 + 8 = 8
11:00 Knoxville (37919) 2 + 2 + 14 = 18
12:00 Morristown (37813) 1 + 0 + 13 = 14
12:00 Chattanooga (37415) 0 + 0 + 9 = 9
12:00 McKenzie (38201) 1 + 0 + 7 = 8
12:00 Hixson (37343) 5 + 2 + 16 = 23
12:00 Seymour (37865) 4 + 0 + 12 = 16
12:00 Franklin (37217) 2 + 4 + 6 = 12
2:30 Madison (37115) 0 + 1 + 15 = 16
4:00 Maryville (37801) 3 + 3 + 9 = 15
4:00 Murfreesboro (37130) 6 + 5 + 17 = 28
4:00 Chattanooga (37421) 3 + 3 + 17 = 23
6:00 Madison (37115) 0 + 1 + 7 = 8
4/21 Sunday
10:00 Clarksville (37042) 0 + 0 + 8 = 8
12:00 Madison (37115) 1 + 0 + 9 = 10
1:00 Murfreesboro (37129) 2 + 2 + 12 = 16
3:30 Madison (37115) 0 + 1 + 9 = 10
4/24 Wednesday
5:00 Knoxville (37924) 3 + 6 + 28 = 37
5:30 Murfreesboro (37129) 1 + 4 + 16 = 21
4/27 Saturday
9:00 Clarksville (37042) 0 + 0 + 5 = 5
12:00 Chattanooga (37411) 2 + 1 + 15 = 18
4/28 Sunday
9:00 Clarksville (37042) 1 + 1 + 9 = 11
12:00 Bristol (37620) 1 + 1 + 10 = 12
2:00 McKenzie (38201) 3 + 0 + 5 = 8
Texas
4/20 Saturday
Bedford (76021) 0 + 0 + 44 = 44
12:01 Waco (76710) 0 + 1 + 7 = 8
12:01 Waco (76706) 0 + 0 + 16 = 16
9:00 McKinney (75070) 4 + 6 + 8 = 18
10:00 Hurst (76053) 0 + 7 + 22 = 29
10:00 Austin (78757) 6 + 8 + 15 = 29
10:00 Bedford (76021) 0 + 0 + 10 = 10
10:00 Mansfield (76063-3294) 16 + 20 + 14 = 50
10:00 El Paso (79902) 0 + 1 + 19 = 20
11:00 Houston (77077) 4 + 1 + 35 = 40
11:00 Frisco (75034) 4 + 4 + 13 = 21
11:00 Dallas (75247) 1 + 2 + 11 = 14
11:00 Conroe (77301) 4 + 0 + 20 = 24
11:00 Houston (77089) 2 + 8 + 19 = 29
11:30 Cypress (77429) 1 + 6 + 8 = 15
12:00 Brownwood (76801) 1 + 1 + 23 = 25
12:00 San Antonio (78253) 5 + 1 + 42 = 48
12:00 Fort Worth (76244) 2 + 4 + 7 = 13
12:00 El Paso (79902) 0 + 0 + 16 = 16
12:00 Tyler (75707) 5 + 4 + 7 = 16
12:00 Tyler (75701) 1 + 2 + 9 = 12
1:00 Frisco (75034) 2 + 0 + 23 = 25
1:00 fort worth (76140) 0 + 0 + 10 = 10
2:00 Cypress (77429) 0 + 2 + 9 = 11
3:00 Irving (75062) 0 + 2 + 19 = 21
3:00 Bedford (76021) 0 + 0 + 16 = 16
3:00 Fort Worth (76244) 0 + 1 + 6 = 7
4:00 Longview (75604) 5 + 0 + 9 = 14
5:00 Waco (76701) 1 + 0 + 7 = 8
6:00 San Antonio (78201) 3 + 1 + 24 = 28
6:00 fort worth (76140) 0 + 0 + 19 = 19
6:00 San Antonio (78231) 2 + 2 + 26 = 30
4/21 Sunday
10:00 Austin (78757) 2 + 5 + 22 = 29
12:00 Laredo (78043) 0 + 0 + 16 = 16
1:00 Dallas (75287) 0 + 0 + 15 = 15
1:00 Bedford (76021) 2 + 1 + 20 = 23
1:00 New Braunfels (78130) 2 + 1 + 16 = 19
4/22 Monday
6:00 Dallas (75287) 1 + 0 + 11 = 12
4/23 Tuesday
5:30 Humble (77338) 2 + 1 + 7 = 10
6:00 Houston (77098) 1 + 3 + 17 = 21
7:00 Austin (78727) 0 + 0 + 19 = 19
4/25 Thursday
5:00 Waco (76701) 0 + 1 + 7 = 8
5:00 Conroe (77301) 5 + 1 + 21 = 27
6:00 Houston (77077) 4 + 1 + 29 = 34
7:00 EL PASO (79925) 0 + 1 + 32 = 33
4/26 Friday
5:30 New Bruanfels (78130) 2 + 4 + 4 = 10
6:00 Waco (76706) 0 + 0 + 11 = 11
6:00 Conroe (77301) 2 + 0 + 12 = 14
6:45 Humble (77338) 1 + 0 + 8 = 9
4/27 Saturday
10:00 Bedford (76021) 3 + 0 + 12 = 15
11:00 Lubbock (79412) 3 + 1 + 8 = 12
1:00 Waco (76710) 1 + 1 + 7 = 9
3:00 Bedford (76021) 0 + 0 + 12 = 12
4:00 Longview (75604) 1 + 3 + 10 = 14
4/28 Sunday
9:00 Houston (77008) 7 + 4 + 11 = 22
11:00 Frisco (75034) 2 + 2 + 15 = 19
11:00 Conroe (77301) 2 + 0 + 7 = 9
12:00 San Antonio (78229) 2 + 2 + 41 = 45
12:00 Humble (77338) 6 + 0 + 2 = 8
12:01 Denison (75020) 1 + 0 + 9 = 10
1:00 Bedford (76021) 2 + 2 + 15 = 19
1:00 New Braunfels (78130) 0 + 1 + 15 = 16
1:00 Frisco (75034) 5 + 3 + 15 = 23
1:30 Copperas Cove (76522) 0 + 1 + 16 = 17
2:00 Harlingen (78550) 0 + 1 + 13 = 14
3:00 Corpus Christi (78413) 0 + 3 + 24 = 27
4:00 Copperas Cove (76522) 0 + 1 + 12 = 13
6:00 Mansfield (76063-3294) 2 + 4 + 4 = 10
Utah
4/20 Saturday
10:00 West Valley City (84119) 2 + 0 + 16 = 18
10:00 Salt Lake City (84106) 7 + 4 + 13 = 24
11:15 Layton (84041) 2 + 1 + 6 = 9
1:30 Tooele (84074) 2 + 2 + 8 = 12
3:00 St. George (84790) 2 + 3 + 3 = 8
4:00 Salt Lake City (84111) 0 + 0 + 8 = 8
4:30 Layton (84041) 3 + 2 + 21 = 26
5:00 North Salt Lake (84054) 0 + 0 + 9 = 9
6:45 Salt Lake City (84111) 0 + 0 + 6 = 6
4/23 Tuesday
5:30 Midvale (84047) 4 + 4 + 18 = 26
4/24 Wednesday
5:30 Sandy (84094) 1 + 5 + 6 = 12
4/25 Thursday
5:00 Tooele (84074) 2 + 2 + 5 = 9
4/27 Saturday
11:00 Saint George (84770) 2 + 6 + 13 = 21
1:00 Salt Lake City (84111) 2 + 0 + 16 = 18
Virginia
4/20 Saturday
10:30 Fredericksburg (22401) 1 + 3 + 16 = 20
11:00 Richmod (23228) 2 + 5 + 7 = 14
12:00 Portsmouth (23701) 6 + 4 + 21 = 31
12:00 Winchester (22601) 1 + 4 + 7 = 12
12:00 Roanoke (24016) 7 + 2 + 11 = 20
12:45 Lynchburg (24502) 5 + 6 + 8 = 19
1:00 Fredericksburg (22401) 0 + 0 + 9 = 9
3:30 Richmod (23228) 0 + 2 + 6 = 8
4/21 Sunday
11:00 Fredericksburg (22401) 1 + 2 + 11 = 14
11:00 Virginia Beach (23452) 0 + 0 + 12 = 12
12:00 Norfolk (23503) 1 + 5 + 9 = 15
2:00 Fredericksburg (22401) 0 + 3 + 6 = 9
4/22 Monday
3:45 Lexington (24450) 3 + 2 + 0 = 5
4/24 Wednesday
6:00 Chantilly (20151) 2 + 4 + 23 = 29
4/27 Saturday
11:00 Richmod (23228) 4 + 3 + 17 = 24
11:00 Virginia Beach (23456) 5 + 3 + 11 = 19
12:00 Portsmouth (23701) 1 + 1 + 11 = 13
12:00 Chantilly (20151) 4 + 5 + 28 = 37
12:00 Harrisonburg (22801) 0 + 1 + 8 = 9
2:30 Richmod (23228) 0 + 2 + 4 = 6
2:45 Chantilly (20151) 0 + 3 + 10 = 13
4/28 Sunday
11:00 Charlottesville (22901) 0 + 2 + 9 = 11
1:30 Midlothian (23113) 6 + 1 + 12 = 19
2:45 Fincastle (24090) 0 + 3 + 2 = 5
3:00 Charlottesville (22901) 0 + 0 + 4 = 4
Washington
4/20 Saturday
SPOKANE VALLEY (99206) 1 + 0 + 13 = 14
12:05 Lakewood (98499) 0 + 0 + 10 = 10
10:00 Spokane (99201) 1 + 1 + 6 = 8
10:00 Edmonds (98026) 1 + 0 + 16 = 17
10:00 Renton (98055) 1 + 3 + 16 = 20
10:00 Edmonds (98026) 0 + 2 + 6 = 8
10:00 Richland (99354) 4 + 3 + 17 = 24
11:00 Ellensburg (98926) 0 + 1 + 12 = 13
11:30 Bremerton (98337) 3 + 5 + 7 = 15
12:00 Spokane (99201) 0 + 2 + 6 = 8
12:00 Marysville (98270) 1 + 0 + 7 = 8
12:30 Spokane Valley (99206) 2 + 0 + 10 = 12
1:00 Renton (98055) 3 + 3 + 18 = 24
1:00 Seattle (98109) 8 + 1 + 3 = 12
2:00 Richland (99354) 3 + 2 + 15 = 20
3:00 Puyallup (98373) 2 + 3 + 12 = 17
4/21 Sunday
2:30 Seattle (98107) 3 + 2 + 3 = 8
4:30 SPOKANE VALLEY (99206) 0 + 1 + 5 = 6
4/22 Monday
4:30 Auburn (98002) 1 + 0 + 5 = 6
4/23 Tuesday
5:30 Spokane (99207) 8 + 3 + 27 = 38
4/24 Wednesday
2:30 Bremerton (98312) 2 + 1 + 8 = 11
5:00 Airway Heights (99001) 2 + 0 + 2 = 4
6:00 Spokane Valley (99206) 0 + 0 + 4 = 4
6:00 Mt Vernon (98273) 0 + 0 + 4 = 4
4/25 Thursday
5:30 SPOKANE VALLEY (99206) 0 + 1 + 4 = 5
6:00 Lakewood (98499) 1 + 3 + 4 = 8
6:00 Marysville (98270) 3 + 0 + 11 = 14
4/26 Friday
4:30 Kent (98032) 2 + 3 + 8 = 13
4/27 Saturday
10:30 Redmond (98052) 3 + 4 + 17 = 24
11:00 Ellensburg (98926) 0 + 0 + 8 = 8
11:30 Tacoma (98406) 8 + 2 + 10 = 20
12:30 Spokane (99207) 0 + 1 + 20 = 21
2:30 Redmond (98052) 0 + 5 + 11 = 16
4/28 Sunday
11:00 Lakewood (98499) 0 + 0 + 8 = 8
11:00 Bellevue (98005) 11 + 3 + 11 = 25
12:00 Lacey (98503) 3 + 4 + 6 = 13
12:00 EVERETT (98208) 1 + 2 + 16 = 19
2:00 Bellevue (98005) 5 + 0 + 4 = 9
2:30 Lacey (98503) 2 + 2 + 5 = 9
5:00 Anacortes (98221) 1 + 1 + 6 = 8
West Virginia
4/20 Saturday
11:00 Beckley (25801) 2 + 2 + 8 = 12
12:00 Morgantown (26501) 0 + 3 + 13 = 16
6:00 Bridgeport (26330) 0 + 1 + 6 = 7
4/28 Sunday
12:00 Morgantown (26501) 7 + 0 + 4 = 11
Wisconsin
4/20 Saturday
Appleton (54915) 0 + 1 + 29 = 30
12:01 De Pere (54115) 0 + 1 + 24 = 25
7:00 Green Bay (54304) 1 + 5 + 7 = 13
9:00 Appleton (54915) 0 + 1 + 7 = 8
10:00 Fond Du Lac (54935) 2 + 1 + 14 = 17
11:00 Menomonie (54751) 2 + 1 + 5 = 8
12:30 De Pere (54115) 4 + 1 + 14 = 19
2:00 Eau Claire (54701) 3 + 6 + 14 = 23
2:30 De Pere (54115) 0 + 2 + 18 = 20
3:00 Green Bay (54302) 2 + 6 + 4 = 12
4:30 De Pere (54115) 0 + 0 + 6 = 6
4/21 Sunday
12:00 Two Rivers (54241) 0 + 1 + 5 = 6
12:00 Madison (53716) 1 + 5 + 13 = 19
4/23 Tuesday
3:00 Sheboygan (53081) 3 + 3 + 14 = 20
4/24 Wednesday
4:00 Green Bay (54302) 1 + 1 + 4 = 6
6:00 Menomonie (54751) 0 + 2 + 9 = 11
4/25 Thursday
3:30 De Pere (54115) 0 + 1 + 5 = 6
3:30 Appleton (54915) 1 + 0 + 11 = 12
5:30 De Pere (54115) 2 + 1 + 8 = 11
4/27 Saturday
9:00 Oconomowoc (53066) 1 + 0 + 20 = 21
9:00 Appleton (54915) 1 + 3 + 14 = 18
10:00 Fond Du Lac (54935) 0 + 1 + 11 = 12
11:00 La Crosse (54601) 4 + 1 + 9 = 14
12:30 De Pere (54115) 0 + 1 + 15 = 16
2:30 De Pere (54115) 1 + 1 + 9 = 11
4:00 River Falls (54022) 4 + 3 + 11 = 18
4:30 De Pere (54115) 0 + 0 + 4 = 4
4/28 Sunday
11:00 Stevens Point (54481) 1 + 1 + 3 = 5
11:00 La Crosse (54601) 2 + 5 + 6 = 13
12:00 Racine (53405) 2 + 8 + 12 = 22
12:00 Madison (53716) 0 + 0 + 8 = 8
12:00 Green Bay (54302) 6 + 3 + 2 = 11
2:30 De Pere (54115) 1 + 0 + 9 = 10
4:00 Madison (53716) 0 + 2 + 10 = 12
Wyoming
4/20 Saturday
10:00 Casper (82601) 2 + 5 + 13 = 20